createdAt,value
2019-04-03T00:01:36.959Z,5.15
2019-04-03T00:04:06.733Z,5.62
2019-04-03T00:06:36.287Z,5.60
2019-04-03T00:09:07.404Z,5.50
2019-04-03T00:11:39.515Z,4.90
2019-04-03T00:14:08.412Z,5.10
2019-04-03T00:16:37.946Z,5.95
2019-04-03T00:19:07.489Z,5.62
2019-04-03T00:21:37.025Z,5.78
2019-04-03T00:24:06.922Z,5.75
2019-04-03T00:26:36.705Z,5.55
2019-04-03T00:29:06.202Z,6.25
2019-04-03T00:31:35.740Z,5.60
2019-04-03T00:34:05.312Z,5.28
2019-04-03T00:36:35.106Z,5.90
2019-04-03T00:39:07.109Z,5.72
2019-04-03T00:41:36.601Z,6.05
2019-04-03T00:44:06.419Z,7.75
2019-04-03T00:46:35.938Z,6.37
2019-04-03T00:49:05.813Z,6.35
2019-04-03T00:51:35.904Z,6.80
2019-04-03T00:54:05.674Z,7.53
2019-04-03T00:56:35.249Z,6.80
2019-04-03T00:59:05.095Z,6.65
2019-04-03T01:01:34.587Z,7.35
2019-04-03T01:04:04.643Z,6.72
2019-04-03T01:06:34.120Z,6.50
2019-04-03T01:09:05.542Z,6.90
2019-04-03T01:11:35.081Z,7.20
2019-04-03T01:14:05.348Z,7.67
2019-04-03T01:16:35.159Z,7.03
2019-04-03T01:19:05.769Z,8.28
2019-04-03T01:21:37.204Z,7.50
2019-04-03T01:24:08.340Z,7.85
2019-04-03T01:26:40.346Z,8.50
2019-04-03T01:29:10.621Z,6.67
2019-04-03T01:31:40.922Z,7.72
2019-04-03T01:34:10.411Z,7.70
2019-04-03T01:36:39.945Z,7.40
2019-04-03T01:39:09.478Z,7.33
2019-04-03T01:41:39.200Z,7.50
2019-04-03T01:44:08.986Z,7.83
2019-04-03T01:46:38.559Z,7.42
2019-04-03T01:49:08.363Z,8.00
2019-04-03T01:51:37.955Z,7.50
2019-04-03T01:54:07.480Z,8.80
2019-04-03T01:56:37.112Z,8.08
2019-04-03T01:59:07.365Z,7.80
2019-04-03T02:01:38.648Z,6.90
2019-04-03T02:04:08.500Z,7.60
2019-04-03T02:06:38.082Z,7.67
2019-04-03T02:09:10.545Z,8.30
2019-04-03T02:11:40.482Z,7.60
2019-04-03T02:14:10.253Z,7.50
2019-04-03T02:16:39.843Z,8.35
2019-04-03T02:19:09.377Z,8.23
2019-04-03T02:21:38.980Z,7.40
2019-04-03T02:24:08.750Z,7.92
2019-04-03T02:26:38.345Z,8.10
2019-04-03T02:29:08.819Z,6.80
2019-04-03T02:31:39.082Z,7.97
2019-04-03T02:34:08.833Z,7.80
2019-04-03T02:36:38.415Z,7.92
2019-04-03T02:39:08.309Z,8.50
2019-04-03T02:41:37.991Z,7.33
2019-04-03T02:44:07.567Z,7.03
2019-04-03T02:46:37.275Z,8.93
2019-04-03T02:49:09.675Z,7.42
2019-04-03T02:51:38.575Z,7.95
2019-04-03T02:54:17.675Z,8.28
2019-04-03T02:56:47.473Z,7.10
2019-04-03T02:59:16.963Z,7.37
2019-04-03T03:01:47.046Z,7.95
2019-04-03T03:04:20.558Z,7.22
2019-04-03T03:06:48.326Z,8.33
2019-04-03T03:09:17.851Z,8.70
2019-04-03T03:11:47.726Z,8.55
2019-04-03T03:14:18.218Z,8.53
2019-04-03T03:16:50.347Z,8.63
2019-04-03T03:19:19.626Z,7.90
2019-04-03T03:21:49.479Z,9.50
2019-04-03T03:24:19.797Z,9.28
2019-04-03T03:26:49.563Z,9.23
2019-04-03T03:29:24.075Z,8.38
2019-04-03T03:32:15.513Z,9.00
2019-04-03T03:34:45.782Z,8.98
2019-04-03T03:37:00.005Z,8.63
2019-04-03T03:39:26.398Z,8.65
2019-04-03T03:41:58.587Z,9.15
2019-04-03T03:44:29.314Z,9.93
2019-04-03T03:47:01.047Z,9.68
2019-04-03T03:49:31.422Z,9.25
2019-04-03T03:52:04.042Z,9.15
2019-04-03T03:54:33.109Z,8.75
2019-04-03T03:57:05.027Z,8.15
2019-04-03T03:59:34.945Z,8.58
2019-04-03T04:02:06.115Z,8.60
2019-04-03T04:04:36.348Z,9.00
2019-04-03T04:07:05.963Z,8.65
2019-04-03T04:09:36.080Z,8.23
2019-04-03T04:12:07.352Z,9.30
2019-04-03T04:14:38.269Z,9.78
2019-04-03T04:17:12.454Z,8.70
2019-04-03T04:19:40.156Z,8.90
2019-04-03T04:22:09.888Z,9.68
2019-04-03T04:24:39.972Z,8.93
2019-04-03T04:27:09.932Z,9.85
2019-04-03T04:29:41.815Z,8.98
2019-04-03T04:32:14.520Z,9.20
2019-04-03T04:34:42.934Z,9.63
2019-04-03T04:37:12.551Z,8.65
2019-04-03T04:39:42.139Z,9.00
2019-04-03T04:42:11.969Z,9.35
2019-04-03T04:44:41.638Z,9.10
2019-04-03T04:47:11.096Z,9.98
2019-04-03T04:49:40.617Z,9.43
2019-04-03T04:52:10.492Z,9.60
2019-04-03T04:54:42.795Z,9.30
2019-04-03T04:57:11.634Z,9.18
2019-04-03T04:59:41.277Z,10.40
2019-04-03T05:02:10.894Z,10.03
2019-04-03T05:04:40.757Z,9.85
2019-04-03T05:07:10.849Z,9.98
2019-04-03T05:09:40.385Z,10.32
2019-04-03T05:12:10.350Z,11.48
2019-04-03T05:14:40.143Z,9.83
2019-04-03T05:17:09.863Z,10.15
2019-04-03T05:19:39.455Z,10.50
2019-04-03T05:22:09.308Z,11.68
2019-04-03T05:24:39.641Z,11.63
2019-04-03T05:27:09.150Z,11.45
2019-04-03T05:29:38.957Z,10.20
2019-04-03T05:32:10.483Z,10.23
2019-04-03T05:34:40.069Z,9.63
2019-04-03T05:37:11.689Z,10.50
2019-04-03T05:39:40.805Z,11.03
2019-04-03T05:42:10.396Z,9.95
2019-04-03T05:44:40.192Z,11.95
2019-04-03T05:47:09.964Z,11.38
2019-04-03T05:49:39.722Z,10.98
2019-04-03T05:52:09.260Z,10.55
2019-04-03T05:54:39.316Z,10.48
2019-04-03T05:57:09.429Z,11.40
2019-04-03T05:59:39.198Z,11.25
2019-04-03T06:02:15.751Z,12.18
2019-04-03T06:04:40.886Z,11.95
2019-04-03T06:07:11.105Z,13.05
2019-04-03T06:09:40.638Z,12.00
2019-04-03T06:12:12.983Z,13.68
2019-04-03T06:14:41.658Z,13.60
2019-04-03T06:17:11.453Z,17.30
2019-04-03T06:19:40.960Z,13.80
2019-04-03T06:22:10.814Z,11.57
2019-04-03T06:24:40.390Z,11.75
2019-04-03T06:27:10.507Z,11.95
2019-04-03T06:29:40.346Z,11.45
2019-04-03T06:32:09.858Z,11.55
2019-04-03T06:34:42.698Z,10.58
2019-04-03T06:37:10.639Z,11.08
2019-04-03T06:39:40.339Z,11.45
2019-04-03T06:42:12.851Z,11.75
2019-04-03T06:44:41.067Z,11.65
2019-04-03T06:47:10.744Z,11.57
2019-04-03T06:49:41.047Z,12.23
2019-04-03T06:52:11.113Z,11.25
2019-04-03T06:54:43.847Z,10.43
2019-04-03T06:57:13.884Z,10.95
2019-04-03T06:59:43.930Z,11.90
2019-04-03T07:02:13.563Z,11.05
2019-04-03T07:04:43.347Z,10.55
2019-04-03T07:07:13.153Z,11.33
2019-04-03T07:09:42.723Z,11.48
2019-04-03T07:12:12.388Z,12.58
2019-04-03T07:14:42.246Z,11.93
2019-04-03T07:17:11.776Z,10.68
2019-04-03T07:19:41.326Z,11.85
2019-04-03T07:22:10.869Z,11.73
2019-04-03T07:24:40.402Z,12.88
2019-04-03T07:27:09.944Z,11.20
2019-04-03T07:29:39.707Z,10.45
2019-04-03T07:32:09.235Z,11.70
2019-04-03T07:34:38.800Z,10.70
2019-04-03T07:37:08.330Z,11.10
2019-04-03T07:39:38.331Z,10.45
2019-04-03T07:42:07.847Z,11.30
2019-04-03T07:44:37.638Z,10.82
2019-04-03T07:47:07.153Z,9.58
2019-04-03T07:49:37.730Z,9.15
2019-04-03T07:52:08.187Z,10.30
2019-04-03T07:54:37.740Z,9.10
2019-04-03T07:57:09.862Z,10.15
2019-04-03T07:59:38.482Z,9.63
2019-04-03T08:02:07.977Z,9.00
2019-04-03T08:04:37.664Z,7.70
2019-04-03T08:07:07.635Z,8.88
2019-04-03T08:09:37.351Z,8.20
2019-04-03T08:12:07.135Z,7.95
2019-04-03T08:14:36.647Z,8.68
2019-04-03T08:17:06.578Z,8.30
2019-04-03T08:19:36.366Z,8.88
2019-04-03T08:22:06.015Z,8.73
2019-04-03T08:24:35.572Z,8.38
2019-04-03T08:27:07.869Z,8.55
2019-04-03T08:29:38.275Z,7.50
2019-04-03T08:32:07.648Z,8.35
2019-04-03T08:34:37.189Z,8.18
2019-04-03T08:37:09.719Z,7.90
2019-04-03T08:39:38.259Z,8.00
2019-04-03T08:42:07.800Z,8.40
2019-04-03T08:44:37.703Z,7.55
2019-04-03T08:47:07.240Z,8.48
2019-04-03T08:49:36.775Z,8.25
2019-04-03T08:52:06.380Z,7.05
2019-04-03T08:54:36.158Z,8.55
2019-04-03T08:57:05.717Z,7.10
2019-04-03T08:59:35.280Z,8.23
2019-04-03T09:02:05.814Z,7.90
2019-04-03T09:04:35.978Z,7.40
2019-04-03T09:07:05.848Z,7.77
2019-04-03T09:09:36.024Z,7.57
2019-04-03T09:12:07.361Z,7.37
2019-04-03T09:14:37.115Z,8.60
2019-04-03T09:17:06.699Z,7.90
2019-04-03T09:19:36.244Z,7.57
2019-04-03T09:22:05.755Z,7.80
2019-04-03T09:24:35.321Z,7.50
2019-04-03T09:27:08.199Z,7.60
2019-04-03T09:29:36.580Z,7.07
2019-04-03T09:32:06.356Z,8.40
2019-04-03T09:34:35.966Z,7.10
2019-04-03T09:37:07.045Z,8.07
2019-04-03T09:39:36.730Z,7.08
2019-04-03T09:42:06.284Z,6.93
2019-04-03T09:44:35.804Z,7.80
2019-04-03T09:47:05.432Z,8.50
2019-04-03T09:49:34.984Z,6.83
2019-04-03T09:52:05.021Z,8.00
2019-04-03T09:54:35.000Z,6.63
2019-04-03T09:57:05.755Z,7.40
2019-04-03T09:59:37.452Z,8.07
2019-04-03T10:02:06.706Z,6.67
2019-04-03T10:04:36.605Z,7.60
2019-04-03T10:07:06.304Z,8.00
2019-04-03T10:09:38.484Z,7.57
2019-04-03T10:12:07.055Z,7.40
2019-04-03T10:14:36.622Z,8.00
2019-04-03T10:17:07.094Z,7.00
2019-04-03T10:19:37.375Z,7.53
2019-04-03T10:22:07.530Z,8.00
2019-04-03T10:24:37.562Z,9.00
2019-04-03T10:27:10.733Z,8.73
2019-04-03T10:29:38.729Z,18.20
2019-04-03T10:32:08.479Z,17.70
2019-04-03T10:34:38.014Z,19.67
2019-04-03T10:37:07.585Z,20.77
2019-04-03T10:39:40.029Z,21.20
2019-04-03T10:42:08.309Z,22.13
2019-04-03T10:44:37.874Z,21.67
2019-04-03T10:47:07.386Z,24.65
2019-04-03T10:49:36.999Z,23.98
2019-04-03T10:52:06.841Z,27.45
2019-04-03T10:54:38.026Z,27.00
2019-04-03T10:57:07.721Z,28.07
2019-04-03T10:59:37.285Z,27.50
2019-04-03T11:02:06.808Z,27.60
2019-04-03T11:04:36.402Z,25.10
2019-04-03T11:07:05.963Z,24.82
2019-04-03T11:09:35.875Z,25.30
2019-04-03T11:12:05.444Z,26.60
2019-04-03T11:14:35.024Z,26.27
2019-04-03T11:17:04.853Z,21.93
2019-04-03T11:19:36.942Z,22.27
2019-04-03T11:22:05.519Z,23.47
2019-04-03T11:24:37.721Z,21.85
2019-04-03T11:27:07.068Z,20.88
2019-04-03T11:29:36.692Z,20.80
2019-04-03T11:32:08.520Z,23.50
2019-04-03T11:34:37.434Z,25.88
2019-04-03T11:37:07.042Z,23.95
2019-04-03T11:39:37.540Z,25.55
2019-04-03T11:42:07.847Z,22.82
2019-04-03T11:44:37.440Z,24.12
2019-04-03T11:47:07.178Z,25.32
2019-04-03T11:49:36.715Z,23.80
2019-04-03T11:52:06.249Z,23.38
2019-04-03T11:54:36.991Z,22.22
2019-04-03T11:57:06.991Z,24.77
2019-04-03T11:59:36.509Z,24.25
2019-04-03T12:02:07.857Z,24.63
2019-04-03T12:04:37.925Z,24.47
2019-04-03T12:07:07.533Z,25.20
2019-04-03T12:09:37.087Z,25.40
2019-04-03T12:12:08.922Z,26.48
2019-04-03T12:14:38.094Z,25.80
2019-04-03T12:17:07.845Z,28.25
2019-04-03T12:19:37.969Z,29.45
2019-04-03T12:22:08.119Z,27.40
2019-04-03T12:24:37.641Z,25.12
2019-04-03T12:27:07.209Z,25.15
2019-04-03T12:29:36.748Z,25.88
2019-04-03T12:32:09.080Z,25.72
2019-04-03T12:34:38.286Z,25.85
2019-04-03T12:37:08.397Z,24.35
2019-04-03T12:39:37.929Z,23.70
2019-04-03T12:42:08.734Z,23.30
2019-04-03T12:44:38.917Z,22.85
2019-04-03T12:47:12.415Z,23.92
2019-04-03T12:49:39.661Z,24.40
2019-04-03T12:52:09.280Z,21.80
2019-04-03T12:54:38.866Z,23.22
2019-04-03T12:57:08.792Z,22.02
2019-04-03T12:59:40.009Z,21.62
2019-04-03T13:02:10.517Z,19.65
2019-04-03T13:04:40.441Z,19.35
2019-04-03T13:07:13.426Z,17.10
2019-04-03T13:09:41.285Z,17.82
2019-04-03T13:12:11.878Z,15.78
2019-04-03T13:14:41.999Z,17.80
2019-04-03T13:17:13.511Z,19.67
2019-04-03T13:19:43.023Z,17.95
2019-04-03T13:22:12.641Z,17.67
2019-04-03T13:24:42.217Z,16.57
2019-04-03T13:27:12.360Z,15.75
2019-04-03T13:29:41.864Z,15.53
2019-04-03T13:32:11.503Z,15.68
2019-04-03T13:34:42.691Z,15.32
2019-04-03T13:37:12.382Z,14.63
2019-04-03T13:39:42.154Z,12.95
2019-04-03T13:42:13.909Z,14.18
2019-04-03T13:44:43.176Z,13.32
2019-04-03T13:47:12.783Z,13.38
2019-04-03T13:49:42.327Z,13.88
2019-04-03T13:52:12.163Z,13.53
2019-04-03T13:54:41.770Z,12.60
2019-04-03T13:57:11.885Z,12.65
2019-04-03T13:59:42.708Z,12.45
2019-04-03T14:02:13.601Z,12.00
2019-04-03T14:04:43.574Z,12.15
2019-04-03T14:07:13.438Z,12.00
2019-04-03T14:09:42.991Z,12.35
2019-04-03T14:12:12.831Z,11.85
2019-04-03T14:14:42.510Z,8.73
2019-04-03T14:17:13.849Z,8.65
2019-04-03T14:19:46.709Z,7.30
2019-04-03T14:22:14.629Z,8.35
2019-04-03T14:24:47.483Z,8.65
2019-04-03T14:27:22.745Z,9.95
2019-04-03T14:29:47.208Z,8.93
2019-04-03T14:32:18.456Z,9.10
2019-04-03T14:34:48.060Z,8.30
2019-04-03T14:37:17.652Z,7.62
2019-04-03T14:39:47.487Z,7.83
2019-04-03T14:42:17.007Z,8.08
2019-04-03T14:44:47.032Z,7.85
2019-04-03T14:47:16.935Z,8.53
2019-04-03T14:49:46.813Z,8.73
2019-04-03T14:52:16.863Z,7.17
2019-04-03T14:54:47.157Z,5.72
2019-04-03T14:57:22.440Z,5.30
2019-04-03T14:59:48.061Z,6.13
2019-04-03T15:02:18.032Z,5.60
2019-04-03T15:04:48.085Z,4.83
2019-04-03T15:07:18.739Z,5.67
2019-04-03T15:09:48.639Z,5.03
2019-04-03T15:12:18.214Z,6.43
2019-04-03T15:14:48.160Z,5.30
2019-04-03T15:17:18.250Z,5.33
2019-04-03T15:19:48.349Z,6.17
2019-04-03T15:22:17.964Z,6.40
2019-04-03T15:24:48.022Z,6.27
2019-04-03T15:27:18.024Z,7.67
2019-04-03T15:29:47.637Z,6.60
2019-04-03T15:32:18.636Z,9.70
2019-04-03T15:34:50.643Z,9.65
2019-04-03T15:37:20.016Z,9.25
2019-04-03T15:39:56.454Z,9.70
2019-04-03T15:42:20.977Z,7.40
2019-04-03T15:44:52.102Z,8.03
2019-04-03T15:47:33.907Z,7.28
2019-04-03T15:49:53.289Z,8.53
2019-04-03T15:52:22.898Z,8.13
2019-04-03T15:54:53.193Z,7.30
2019-04-03T15:57:23.219Z,7.10
2019-04-03T15:59:53.390Z,7.60
2019-04-03T16:02:23.684Z,8.58
2019-04-03T16:04:53.837Z,9.48
2019-04-03T16:07:23.424Z,10.32
2019-04-03T16:09:53.008Z,8.70
2019-04-03T16:12:22.619Z,10.03
2019-04-03T16:14:52.159Z,9.58
2019-04-03T16:17:22.158Z,9.00
2019-04-03T16:19:52.902Z,8.65
2019-04-03T16:22:22.946Z,8.95
2019-04-03T16:24:53.824Z,10.40
2019-04-03T16:27:29.118Z,47.70
2019-04-03T16:29:57.833Z,65.45
2019-04-03T16:32:28.257Z,15.20
2019-04-03T16:34:58.879Z,18.75
2019-04-03T16:37:28.721Z,12.37
2019-04-03T16:39:58.248Z,8.50
2019-04-03T16:42:27.874Z,9.63
2019-04-03T16:44:58.342Z,6.97
2019-04-03T16:47:28.135Z,7.67
2019-04-03T16:49:57.716Z,9.33
2019-04-03T16:52:30.102Z,9.53
2019-04-03T16:54:58.824Z,11.40
2019-04-03T16:57:28.688Z,10.08
2019-04-03T16:59:58.621Z,9.98
2019-04-03T17:02:29.785Z,11.70
2019-04-03T17:04:59.690Z,12.03
2019-04-03T17:07:29.296Z,11.35
2019-04-03T17:09:59.465Z,12.78
2019-04-03T17:12:29.316Z,12.80
2019-04-03T17:14:59.295Z,12.37
2019-04-03T17:17:29.242Z,12.47
2019-04-03T17:19:59.087Z,11.97
2019-04-03T17:22:28.702Z,13.45
2019-04-03T17:24:58.996Z,11.68
2019-04-03T17:27:30.194Z,11.97
2019-04-03T17:30:00.173Z,11.83
2019-04-03T17:32:31.174Z,12.25
2019-04-03T17:35:01.619Z,13.50
2019-04-03T17:37:31.153Z,14.90
2019-04-03T17:40:00.896Z,14.25
2019-04-03T17:42:30.512Z,15.10
2019-04-03T17:45:00.156Z,15.23
2019-04-03T17:47:29.722Z,17.07
2019-04-03T17:49:59.910Z,15.70
2019-04-03T17:52:29.579Z,16.42
2019-04-03T17:54:59.458Z,16.52
2019-04-03T17:57:29.100Z,16.42
2019-04-03T17:59:58.978Z,17.10
2019-04-03T18:02:30.027Z,16.93
2019-04-03T18:04:59.627Z,17.85
2019-04-03T18:07:29.297Z,16.60
2019-04-03T18:09:59.133Z,18.50
2019-04-03T18:12:28.745Z,18.82
2019-04-03T18:14:58.615Z,18.12
2019-04-03T18:17:28.157Z,18.98
2019-04-03T18:19:57.902Z,19.57
2019-04-03T18:22:27.456Z,17.48
2019-04-03T18:24:57.049Z,17.92
2019-04-03T18:27:26.650Z,18.12
2019-04-03T18:29:56.469Z,18.05
2019-04-03T18:32:26.058Z,19.65
2019-04-03T18:34:55.939Z,17.57
2019-04-03T18:37:25.484Z,18.07
2019-04-03T18:39:55.135Z,18.80
2019-04-03T18:42:24.940Z,16.20
2019-04-03T18:44:55.962Z,17.60
2019-04-03T18:47:25.821Z,17.67
2019-04-03T18:49:55.685Z,18.27
2019-04-03T18:52:25.333Z,17.25
2019-04-03T18:54:54.948Z,18.15
2019-04-03T18:57:24.620Z,19.02
2019-04-03T18:59:56.223Z,17.85
2019-04-03T19:02:25.772Z,19.55
2019-04-03T19:05:01.725Z,17.85
2019-04-03T19:07:27.262Z,16.80
2019-04-03T19:10:06.243Z,19.55
2019-04-03T19:12:35.643Z,18.75
2019-04-03T19:15:02.527Z,19.65
2019-04-03T19:17:30.938Z,19.67
2019-04-03T19:20:10.183Z,20.30
2019-04-03T19:22:32.135Z,19.50
2019-04-03T19:25:01.738Z,16.87
2019-04-03T19:27:33.018Z,18.27
2019-04-03T19:30:02.648Z,13.43
2019-04-03T19:32:32.273Z,11.18
2019-04-03T19:35:02.161Z,12.50
2019-04-03T19:37:34.082Z,13.90
2019-04-03T19:40:03.185Z,13.03
2019-04-03T19:42:32.768Z,13.18
2019-04-03T19:45:02.371Z,12.53
2019-04-03T19:47:32.533Z,12.58
2019-04-03T19:50:02.269Z,12.45
2019-04-03T19:52:31.877Z,12.35
2019-04-03T19:55:02.642Z,15.65
2019-04-03T19:57:34.223Z,14.38
2019-04-03T20:00:04.031Z,15.78
2019-04-03T20:02:33.641Z,13.22
2019-04-03T20:05:03.515Z,14.45
2019-04-03T20:07:34.299Z,13.85
2019-04-03T20:10:05.987Z,14.55
2019-04-03T20:12:35.807Z,14.47
2019-04-03T20:15:07.501Z,14.73
2019-04-03T20:17:37.191Z,13.75
2019-04-03T20:20:07.423Z,13.60
2019-04-03T20:22:37.880Z,14.85
2019-04-03T20:25:08.955Z,14.73
2019-04-03T20:27:38.625Z,15.48
2019-04-03T20:30:09.758Z,13.83
2019-04-03T20:32:40.844Z,13.10
2019-04-03T20:35:10.702Z,12.50
2019-04-03T20:37:40.338Z,13.68
2019-04-03T20:40:11.593Z,14.60
2019-04-03T20:42:41.610Z,14.30
2019-04-03T20:45:11.254Z,14.03
2019-04-03T20:47:40.895Z,16.15
2019-04-03T20:50:10.480Z,16.97
2019-04-03T20:52:40.094Z,19.45
2019-04-03T20:55:09.856Z,18.02
2019-04-03T20:57:39.514Z,18.92
2019-04-03T21:00:13.618Z,18.48
2019-04-03T21:02:43.323Z,18.67
2019-04-03T21:05:13.460Z,18.40
2019-04-03T21:07:43.310Z,18.15
2019-04-03T21:10:13.160Z,15.65
2019-04-03T21:12:42.699Z,14.47
2019-04-03T21:15:14.209Z,13.35
2019-04-03T21:17:43.721Z,14.75
2019-04-03T21:20:13.613Z,14.93
2019-04-03T21:22:43.548Z,14.90
2019-04-03T21:25:13.460Z,11.95
2019-04-03T21:27:43.041Z,13.05
2019-04-03T21:30:13.117Z,11.80
2019-04-03T21:32:42.724Z,12.95
2019-04-03T21:35:12.511Z,11.35
2019-04-03T21:37:42.129Z,10.82
2019-04-03T21:40:14.730Z,11.05
2019-04-03T21:42:43.209Z,10.78
2019-04-03T21:45:13.346Z,11.57
2019-04-03T21:47:43.287Z,13.20
2019-04-03T21:50:12.955Z,12.20
2019-04-03T21:52:42.533Z,11.53
2019-04-03T21:55:12.619Z,10.95
2019-04-03T21:57:42.513Z,10.45
2019-04-03T22:00:14.437Z,9.15
2019-04-03T22:02:45.237Z,8.68
2019-04-03T22:05:15.026Z,7.87
2019-04-03T22:07:44.906Z,7.33
2019-04-03T22:10:15.091Z,6.83
2019-04-03T22:12:44.735Z,5.95
2019-04-03T22:15:14.586Z,7.05
2019-04-03T22:17:44.267Z,6.25
2019-04-03T22:20:13.990Z,5.15
2019-04-03T22:22:43.848Z,5.35
2019-04-03T22:25:14.003Z,5.25
2019-04-03T22:27:43.722Z,5.20
2019-04-03T22:30:13.652Z,6.03
2019-04-03T22:32:43.493Z,5.05
2019-04-03T22:35:14.001Z,5.65
2019-04-03T22:37:43.866Z,5.97
2019-04-03T22:40:13.494Z,4.92
2019-04-03T22:42:45.353Z,4.60
2019-04-03T22:45:14.373Z,4.40
2019-04-03T22:47:47.422Z,3.80
2019-04-03T22:50:15.786Z,5.22
2019-04-03T22:52:45.427Z,4.15
2019-04-03T22:55:15.484Z,4.00
2019-04-03T22:57:45.606Z,3.30
2019-04-03T23:00:15.346Z,3.50
2019-04-03T23:02:44.978Z,4.10
2019-04-03T23:05:16.900Z,3.05
2019-04-03T23:07:46.382Z,3.45
2019-04-03T23:10:15.981Z,4.30
2019-04-03T23:12:45.645Z,4.40
2019-04-03T23:15:15.263Z,5.30
2019-04-03T23:17:45.433Z,4.03
2019-04-03T23:20:15.109Z,3.70
2019-04-03T23:22:44.762Z,4.28
2019-04-03T23:25:14.392Z,4.60
2019-04-03T23:27:44.111Z,4.55
2019-04-03T23:30:13.865Z,3.95
2019-04-03T23:32:45.745Z,4.08
2019-04-03T23:35:15.101Z,4.53
2019-04-03T23:37:45.730Z,5.00
2019-04-03T23:40:15.443Z,4.85
2019-04-03T23:42:45.112Z,4.55
2019-04-03T23:45:15.317Z,3.85
2019-04-03T23:47:46.713Z,4.80
2019-04-03T23:50:16.329Z,4.33
2019-04-03T23:52:45.992Z,4.87
2019-04-03T23:55:15.598Z,4.47
2019-04-03T23:57:45.238Z,4.55
